Time;durP1;ratioP1;P1;durP2;ratioP2;P2;SDS_P1;SDS_P2;PMS_P1;PMS_P2;Temp;Humidity;BMP_temperature;BMP_pressure;BME280_temperature;BME280_humidity;BME280_pressure;Samples;Min_cycle;Max_cycle;Signal;HPM_P1;HPM_P2
2023/06/09 00:00:19;;;;;;;;;;;;;;;24.55;40.11;100691.35;103341;1292;75362;-84
2023/06/09 00:02:48;;;;;;;;;;;;;;;24.55;39.98;100691.17;103370;1292;61367;-84
2023/06/09 00:05:14;;;;;;;;;;;;;;;24.55;40.07;100692.23;103370;1292;62474;-83
2023/06/09 00:07:40;;;;;;;;;;;;;;;24.55;40.10;100687.77;103345;1294;72234;-84
2023/06/09 00:10:06;;;;;;;;;;;;;;;24.55;40.18;100678.95;103227;1296;61466;-84
2023/06/09 00:12:32;;;;;;;;;;;;;;;24.54;40.18;100677.52;103273;1292;61481;-83
2023/06/09 00:14:58;;;;;;;;;;;;;;;24.54;40.21;100674.48;103346;1292;61467;-83
2023/06/09 00:17:24;;;;;;;;;;;;;;;24.54;40.20;100674.48;103333;1290;61247;-83
2023/06/09 00:19:52;;;;;;;;;;;;;;;24.54;40.16;100669.11;103415;1286;61416;-84
2023/06/09 00:22:19;;;;;;;;;;;;;;;24.54;40.16;100668.96;103449;1287;62358;-83
2023/06/09 00:24:45;;;;;;;;;;;;;;;24.54;40.24;100667.17;103389;1292;61342;-83
2023/06/09 00:27:10;;;;;;;;;;;;;;;24.54;40.23;100666.09;103277;1292;61375;-83
2023/06/09 00:29:37;;;;;;;;;;;;;;;24.54;40.22;100667.52;103289;1292;61486;-83
2023/06/09 00:32:03;;;;;;;;;;;;;;;24.54;40.18;100669.33;103811;1291;61419;-84
2023/06/09 00:34:29;;;;;;;;;;;;;;;24.53;40.27;100668.45;103965;1286;61312;-84
2023/06/09 00:36:55;;;;;;;;;;;;;;;24.54;40.30;100669.34;104076;1292;61342;-85
2023/06/09 00:39:22;;;;;;;;;;;;;;;24.54;40.34;100667.31;103660;1292;62581;-84
2023/06/09 00:41:47;;;;;;;;;;;;;;;24.54;40.35;100663.88;103266;1286;61304;-84
2023/06/09 00:44:13;;;;;;;;;;;;;;;24.54;40.27;100663.69;103270;1290;61391;-84
2023/06/09 00:46:40;;;;;;;;;;;;;;;24.55;40.41;100662.21;103289;1286;61474;-84
2023/06/09 00:49:06;;;;;;;;;;;;;;;24.54;40.41;100663.31;103314;1293;73575;-84
2023/06/09 00:51:32;;;;;;;;;;;;;;;24.54;40.34;100658.29;103271;1292;61352;-84
2023/06/09 00:53:58;;;;;;;;;;;;;;;24.54;40.33;100658.68;103285;1294;62436;-84
2023/06/09 00:56:24;;;;;;;;;;;;;;;24.54;40.37;100663.17;103495;1290;61422;-85
2023/06/09 00:58:50;;;;;;;;;;;;;;;24.54;40.39;100666.77;103276;1292;61441;-84
2023/06/09 01:01:16;;;;;;;;;;;;;;;24.54;40.38;100667.14;103379;1291;61301;-84
2023/06/09 01:03:42;;;;;;;;;;;;;;;24.53;40.31;100662.31;103393;1286;61872;-84
2023/06/09 01:06:09;;;;;;;;;;;;;;;24.53;40.34;100663.59;103308;1287;62382;-84
2023/06/09 01:08:40;;;;;;;;;;;;;;;24.53;40.41;100660.21;103519;1286;61375;-84
2023/06/09 01:11:13;;;;;;;;;;;;;;;24.53;40.55;100658.20;103322;1291;72950;-84
2023/06/09 01:14:05;;;;;;;;;;;;;;;24.53;40.41;100653.36;103452;1291;75979;-84
2023/06/09 01:16:52;;;;;;;;;;;;;;;24.53;40.44;100659.16;103288;1286;61401;-84
2023/06/09 01:19:24;;;;;;;;;;;;;;;24.53;40.44;100661.52;103474;1286;61403;-84
2023/06/09 01:21:50;;;;;;;;;;;;;;;24.53;40.48;100664.02;103271;1292;64559;-84
2023/06/09 01:24:21;;;;;;;;;;;;;;;24.52;40.43;100670.91;103329;1286;62576;-84
2023/06/09 01:26:50;;;;;;;;;;;;;;;24.52;40.50;100669.67;103648;1292;61361;-84
2023/06/09 01:29:16;;;;;;;;;;;;;;;24.52;40.57;100670.38;103961;1290;61252;-84
2023/06/09 01:31:42;;;;;;;;;;;;;;;24.52;40.50;100666.02;103772;1292;61417;-84
2023/06/09 01:34:08;;;;;;;;;;;;;;;24.52;40.58;100664.98;103704;1289;61391;-84
2023/06/09 01:36:34;;;;;;;;;;;;;;;24.53;40.54;100667.48;103809;1290;61745;-84
2023/06/09 01:39:00;;;;;;;;;;;;;;;24.53;40.67;100671.73;104675;1286;61378;-84
2023/06/09 01:41:25;;;;;;;;;;;;;;;24.53;40.60;100670.64;103767;1288;61374;-84
2023/06/09 01:43:51;;;;;;;;;;;;;;;24.53;40.63;100672.98;103407;1286;61390;-84
2023/06/09 01:46:17;;;;;;;;;;;;;;;24.53;40.64;100673.14;103386;1286;75388;-84
2023/06/09 01:49:01;;;;;;;;;;;;;;;24.53;40.59;100674.05;103494;1286;61396;-84
2023/06/09 01:51:41;;;;;;;;;;;;;;;24.52;40.57;100667.45;103290;1294;62499;-84
2023/06/09 01:54:07;;;;;;;;;;;;;;;24.53;40.60;100664.94;103438;1292;72458;-83
2023/06/09 01:56:38;;;;;;;;;;;;;;;24.53;40.69;100666.90;103252;1294;73741;-84
2023/06/09 01:59:05;;;;;;;;;;;;;;;24.53;40.64;100667.59;103413;1290;61378;-83
2023/06/09 02:01:31;;;;;;;;;;;;;;;24.52;40.67;100663.70;103283;1292;61338;-84
2023/06/09 02:03:57;;;;;;;;;;;;;;;24.52;40.71;100664.66;103377;1286;62522;-85
2023/06/09 02:06:24;;;;;;;;;;;;;;;24.51;40.70;100662.50;103298;1286;61409;-84
2023/06/09 02:08:50;;;;;;;;;;;;;;;24.51;40.60;100666.34;103443;1293;61365;-84
2023/06/09 02:11:15;;;;;;;;;;;;;;;24.50;40.73;100665.84;103230;1286;61378;-84
2023/06/09 02:13:41;;;;;;;;;;;;;;;24.50;40.63;100665.48;103280;1292;62538;-84
2023/06/09 02:16:07;;;;;;;;;;;;;;;24.50;40.75;100665.17;103159;1295;61323;-84
2023/06/09 02:18:33;;;;;;;;;;;;;;;24.50;40.73;100667.89;103540;1286;61410;-84
2023/06/09 02:20:59;;;;;;;;;;;;;;;24.50;40.73;100673.09;103383;1286;61260;-84
2023/06/09 02:23:25;;;;;;;;;;;;;;;24.49;40.75;100678.05;103148;1294;61371;-83
2023/06/09 02:25:51;;;;;;;;;;;;;;;24.49;40.85;100682.14;103290;1292;61354;-83
2023/06/09 02:28:21;;;;;;;;;;;;;;;24.49;40.66;100684.69;103330;1289;61375;-84
2023/06/09 02:30:47;;;;;;;;;;;;;;;24.49;40.84;100683.27;103360;1291;61289;-84
2023/06/09 02:33:18;;;;;;;;;;;;;;;24.49;40.81;100678.76;103254;1289;61352;-84
2023/06/09 02:35:43;;;;;;;;;;;;;;;24.48;40.76;100681.13;103329;1292;63696;-84
2023/06/09 02:38:09;;;;;;;;;;;;;;;24.48;40.81;100685.47;103312;1289;61416;-84
2023/06/09 02:40:35;;;;;;;;;;;;;;;24.48;40.86;100688.20;103287;1289;61477;-84
2023/06/09 02:43:01;;;;;;;;;;;;;;;24.48;40.69;100691.23;103331;1288;61344;-84
2023/06/09 02:45:26;;;;;;;;;;;;;;;24.48;40.93;100697.20;103103;1289;61379;-85
2023/06/09 02:47:52;;;;;;;;;;;;;;;24.48;40.89;100698.81;103351;1295;61388;-84
2023/06/09 02:50:18;;;;;;;;;;;;;;;24.48;40.89;100701.17;103138;1290;75039;-84
2023/06/09 02:52:44;;;;;;;;;;;;;;;24.47;40.85;100701.91;103199;1293;61329;-85
2023/06/09 02:55:11;;;;;;;;;;;;;;;24.47;40.84;100701.54;103261;1292;61432;-84
2023/06/09 02:57:36;;;;;;;;;;;;;;;24.48;40.93;100700.27;103263;1289;61397;-84
2023/06/09 03:00:04;;;;;;;;;;;;;;;24.47;40.98;100704.41;103276;1292;61506;-84
2023/06/09 03:02:30;;;;;;;;;;;;;;;24.47;41.00;100704.44;103388;1289;61480;-84
2023/06/09 03:04:56;;;;;;;;;;;;;;;24.47;41.08;100711.63;103383;1291;61354;-84
2023/06/09 03:07:22;;;;;;;;;;;;;;;24.48;41.05;100712.51;103322;1294;62530;-84
2023/06/09 03:09:48;;;;;;;;;;;;;;;24.48;40.98;100708.70;103234;1292;62453;-84
2023/06/09 03:12:14;;;;;;;;;;;;;;;24.47;40.95;100711.09;103383;1288;61375;-84
2023/06/09 03:14:39;;;;;;;;;;;;;;;24.48;41.01;100715.02;103257;1289;61858;-84
2023/06/09 03:17:06;;;;;;;;;;;;;;;24.48;41.03;100716.60;103176;1289;61878;-84
2023/06/09 03:19:31;;;;;;;;;;;;;;;24.48;41.07;100719.49;103291;1289;61435;-84
2023/06/09 03:21:57;;;;;;;;;;;;;;;24.48;41.11;100721.31;103218;1289;62635;-84
2023/06/09 03:24:23;;;;;;;;;;;;;;;24.47;41.09;100719.73;103343;1289;61410;-84
2023/06/09 03:26:49;;;;;;;;;;;;;;;24.47;40.94;100715.40;103223;1289;61349;-84
2023/06/09 03:29:14;;;;;;;;;;;;;;;24.48;41.15;100716.99;103267;1289;62515;-84
2023/06/09 03:31:40;;;;;;;;;;;;;;;24.47;41.10;100719.55;103326;1291;73277;-84
2023/06/09 03:34:06;;;;;;;;;;;;;;;24.48;41.15;100720.41;103361;1291;61288;-84
2023/06/09 03:36:35;;;;;;;;;;;;;;;24.48;41.08;100721.48;103229;1289;61521;-83
2023/06/09 03:39:02;;;;;;;;;;;;;;;24.48;41.09;100722.93;103326;1290;61273;-84
2023/06/09 03:41:27;;;;;;;;;;;;;;;24.48;41.12;100721.12;103375;1292;61299;-84
2023/06/09 03:43:53;;;;;;;;;;;;;;;24.48;41.18;100720.59;103133;1289;61439;-84
2023/06/09 03:46:19;;;;;;;;;;;;;;;24.48;41.12;100723.48;103255;1289;61401;-84
2023/06/09 03:48:44;;;;;;;;;;;;;;;24.48;41.19;100726.33;103347;1289;61385;-83
2023/06/09 03:51:11;;;;;;;;;;;;;;;24.48;41.16;100729.39;103253;1288;61875;-83
2023/06/09 03:53:37;;;;;;;;;;;;;;;24.48;41.24;100733.16;103243;1289;61359;-83
2023/06/09 03:56:02;;;;;;;;;;;;;;;24.48;41.22;100737.50;103355;1289;61438;-84
2023/06/09 03:58:28;;;;;;;;;;;;;;;24.48;41.23;100739.13;103212;1294;61573;-84
2023/06/09 04:00:53;;;;;;;;;;;;;;;24.48;41.23;100737.64;103169;1289;62405;-84
2023/06/09 04:03:20;;;;;;;;;;;;;;;24.49;41.19;100740.66;103383;1291;61281;-85
2023/06/09 04:05:46;;;;;;;;;;;;;;;24.49;41.21;100740.67;103290;1289;62249;-84
2023/06/09 04:08:12;;;;;;;;;;;;;;;24.48;41.30;100739.08;103259;1289;62047;-84
2023/06/09 04:10:38;;;;;;;;;;;;;;;24.48;41.29;100740.67;103361;1289;62015;-84
2023/06/09 04:13:03;;;;;;;;;;;;;;;24.49;41.25;100738.31;103421;1292;61356;-84
2023/06/09 04:15:31;;;;;;;;;;;;;;;24.49;41.25;100736.33;103420;1288;73695;-84
2023/06/09 04:17:57;;;;;;;;;;;;;;;24.49;41.17;100738.48;103275;1289;75236;-84
2023/06/09 04:20:24;;;;;;;;;;;;;;;24.49;41.12;100735.92;103246;1289;61457;-84
2023/06/09 04:22:50;;;;;;;;;;;;;;;24.49;41.12;100736.87;103304;1289;61382;-84
2023/06/09 04:25:16;;;;;;;;;;;;;;;24.49;41.14;100735.21;103283;1290;61378;-83
2023/06/09 04:27:42;;;;;;;;;;;;;;;24.49;41.09;100739.36;103319;1293;61286;-84
2023/06/09 04:30:08;;;;;;;;;;;;;;;24.50;41.05;100738.42;103341;1288;62035;-84
2023/06/09 04:32:34;;;;;;;;;;;;;;;24.50;40.97;100736.77;103404;1292;61409;-84
2023/06/09 04:35:00;;;;;;;;;;;;;;;24.51;41.01;100745.35;103308;1292;62348;-84
2023/06/09 04:37:26;;;;;;;;;;;;;;;24.51;40.92;100741.55;103392;1289;61270;-84
2023/06/09 04:39:52;;;;;;;;;;;;;;;24.52;40.96;100744.48;103265;1288;62036;-84
2023/06/09 04:42:22;;;;;;;;;;;;;;;24.52;40.98;100745.01;103329;1289;61359;-84
2023/06/09 04:44:49;;;;;;;;;;;;;;;24.53;40.78;100741.71;103407;1288;61386;-84
2023/06/09 04:47:18;;;;;;;;;;;;;;;24.54;40.83;100744.70;103388;1288;63654;-84
2023/06/09 04:49:46;;;;;;;;;;;;;;;24.55;40.83;100744.25;102991;1294;64712;-84
2023/06/09 04:52:17;;;;;;;;;;;;;;;24.55;40.82;100740.96;103392;1289;61390;-84
2023/06/09 04:54:44;;;;;;;;;;;;;;;24.56;40.74;100740.16;103183;1294;61330;-84
2023/06/09 04:57:10;;;;;;;;;;;;;;;24.57;40.78;100740.82;103344;1288;64916;-84
2023/06/09 04:59:39;;;;;;;;;;;;;;;24.58;40.73;100742.55;103345;1289;65801;-84
2023/06/09 05:02:04;;;;;;;;;;;;;;;24.58;40.64;100742.85;103362;1288;61394;-84
2023/06/09 05:04:31;;;;;;;;;;;;;;;24.59;40.59;100741.20;103401;1289;61387;-84
2023/06/09 05:06:58;;;;;;;;;;;;;;;24.59;40.57;100741.16;103480;1289;61394;-84
2023/06/09 05:09:24;;;;;;;;;;;;;;;24.60;40.58;100742.55;103274;1289;65519;-84
2023/06/09 05:11:50;;;;;;;;;;;;;;;24.60;40.51;100751.32;103284;1292;61353;-84
2023/06/09 05:14:15;;;;;;;;;;;;;;;24.62;40.48;100756.99;103231;1289;62611;-84
2023/06/09 05:16:42;;;;;;;;;;;;;;;24.62;40.48;100753.19;103183;1294;62261;-84
2023/06/09 05:19:08;;;;;;;;;;;;;;;24.63;40.51;100752.44;103555;1288;61379;-84
2023/06/09 05:21:36;;;;;;;;;;;;;;;24.63;40.45;100752.40;103305;1288;62330;-84
2023/06/09 05:24:02;;;;;;;;;;;;;;;24.63;40.22;100753.60;103251;1289;61458;-84
2023/06/09 05:26:29;;;;;;;;;;;;;;;24.64;40.29;100752.84;103528;1289;61386;-84
2023/06/09 05:28:56;;;;;;;;;;;;;;;24.65;40.29;100747.75;103567;1294;61351;-84
2023/06/09 05:31:23;;;;;;;;;;;;;;;24.66;40.33;100750.02;103465;1289;61289;-85
2023/06/09 05:33:50;;;;;;;;;;;;;;;24.66;40.16;100754.83;103550;1288;61320;-84
2023/06/09 05:36:15;;;;;;;;;;;;;;;24.66;40.20;100753.39;103407;1292;61354;-84
2023/06/09 05:38:41;;;;;;;;;;;;;;;24.67;40.23;100749.01;103445;1289;61481;-84
2023/06/09 05:41:11;;;;;;;;;;;;;;;24.68;40.19;100752.70;103759;1288;61296;-84
2023/06/09 05:43:36;;;;;;;;;;;;;;;24.68;40.09;100751.05;103211;1291;61357;-85
2023/06/09 05:46:02;;;;;;;;;;;;;;;24.69;40.18;100749.19;103457;1288;61468;-84
2023/06/09 05:48:30;;;;;;;;;;;;;;;24.69;40.17;100743.02;103604;1289;62313;-84
2023/06/09 05:50:56;;;;;;;;;;;;;;;24.70;39.97;100739.35;103495;1288;61387;-85
2023/06/09 05:53:23;;;;;;;;;;;;;;;24.71;40.05;100742.17;103599;1289;61397;-84
2023/06/09 05:55:52;;;;;;;;;;;;;;;24.71;40.02;100738.19;103528;1289;63915;-84
2023/06/09 05:58:18;;;;;;;;;;;;;;;24.71;39.98;100738.20;103522;1289;75572;-85
2023/06/09 06:00:44;;;;;;;;;;;;;;;24.72;39.96;100740.66;103957;1292;61794;-85
2023/06/09 06:03:11;;;;;;;;;;;;;;;24.72;39.99;100744.77;103721;1288;62622;-85
2023/06/09 06:05:37;;;;;;;;;;;;;;;24.72;39.85;100751.76;103510;1294;61330;-84
2023/06/09 06:08:02;;;;;;;;;;;;;;;24.72;39.91;100753.80;103629;1289;61402;-84
2023/06/09 06:10:28;;;;;;;;;;;;;;;24.70;39.76;100752.65;103983;1288;59474;-85
2023/06/09 06:12:54;;;;;;;;;;;;;;;24.70;39.84;100748.02;104128;1292;61321;-85
2023/06/09 06:15:20;;;;;;;;;;;;;;;24.70;39.87;100745.43;103893;1289;61397;-85
2023/06/09 06:17:46;;;;;;;;;;;;;;;24.71;39.81;100741.95;103654;1294;62232;-85
2023/06/09 06:20:12;;;;;;;;;;;;;;;24.72;39.71;100743.32;103653;1288;66989;-84
2023/06/09 06:22:38;;;;;;;;;;;;;;;24.73;39.68;100745.38;103595;1288;61346;-84
2023/06/09 06:25:04;;;;;;;;;;;;;;;24.74;39.78;100740.63;103825;1292;61397;-85
2023/06/09 06:27:29;;;;;;;;;;;;;;;24.74;39.80;100739.55;103672;1289;62592;-85
2023/06/09 06:29:55;;;;;;;;;;;;;;;24.74;39.77;100738.44;103863;1292;61247;-85
2023/06/09 06:32:22;;;;;;;;;;;;;;;24.75;39.58;100735.52;104191;1289;62432;-84
2023/06/09 06:34:47;;;;;;;;;;;;;;;24.75;39.65;100738.88;104166;1289;61301;-85
2023/06/09 06:37:14;;;;;;;;;;;;;;;24.76;39.66;100737.05;104269;1288;61400;-85
2023/06/09 06:39:41;;;;;;;;;;;;;;;24.76;39.58;100733.92;103986;1288;63838;-85
2023/06/09 06:42:06;;;;;;;;;;;;;;;24.77;39.56;100732.80;104127;1289;65876;-84
2023/06/09 06:44:32;;;;;;;;;;;;;;;24.78;39.55;100734.13;104168;1288;61368;-84
2023/06/09 06:46:57;;;;;;;;;;;;;;;24.79;39.45;100729.79;104024;1288;61388;-85
2023/06/09 06:49:23;;;;;;;;;;;;;;;24.80;39.48;100731.49;104063;1294;60094;-84
2023/06/09 06:51:48;;;;;;;;;;;;;;;24.80;39.34;100724.13;104200;1289;62949;-85
2023/06/09 06:54:16;;;;;;;;;;;;;;;24.80;39.38;100724.98;104224;1289;65964;-85
2023/06/09 06:56:42;;;;;;;;;;;;;;;24.81;39.34;100725.13;104035;1288;61296;-85
2023/06/09 06:59:07;;;;;;;;;;;;;;;24.81;39.42;100727.44;104226;1288;61435;-84
2023/06/09 07:01:33;;;;;;;;;;;;;;;24.81;39.35;100723.85;103959;1288;61381;-84
2023/06/09 07:03:58;;;;;;;;;;;;;;;24.82;39.31;100725.39;104415;1288;62096;-85
2023/06/09 07:06:24;;;;;;;;;;;;;;;24.82;39.51;100729.86;104378;1288;61385;-84
2023/06/09 07:08:53;;;;;;;;;;;;;;;24.82;39.32;100731.80;104160;1288;61308;-84
2023/06/09 07:11:19;;;;;;;;;;;;;;;24.82;39.42;100731.82;105273;1288;61190;-85
2023/06/09 07:13:45;;;;;;;;;;;;;;;24.82;39.26;100731.15;104277;1288;713287;-85
2023/06/09 07:16:10;;;;;;;;;;;;;;;24.82;39.35;100731.66;104998;1288;61254;-85
2023/06/09 07:18:36;;;;;;;;;;;;;;;24.83;39.30;100731.59;105387;1288;60690;-85
2023/06/09 07:21:01;;;;;;;;;;;;;;;24.83;39.37;100726.90;105436;1288;61455;-85
2023/06/09 07:23:27;;;;;;;;;;;;;;;24.84;39.40;100726.11;105266;1288;61253;-85
2023/06/09 07:25:53;;;;;;;;;;;;;;;24.84;39.36;100723.55;105482;1288;61289;-85
2023/06/09 07:28:19;;;;;;;;;;;;;;;24.85;39.34;100722.37;105186;1288;61139;-85
2023/06/09 07:30:44;;;;;;;;;;;;;;;24.86;39.45;100719.92;105365;1288;61333;-85
2023/06/09 07:33:10;;;;;;;;;;;;;;;24.87;39.30;100721.52;105302;1288;61360;-85
2023/06/09 07:35:35;;;;;;;;;;;;;;;24.87;39.31;100715.32;104589;1291;61372;-85
2023/06/09 07:38:02;;;;;;;;;;;;;;;24.88;39.36;100720.84;104356;1288;61481;-85
2023/06/09 07:40:27;;;;;;;;;;;;;;;24.89;39.38;100723.67;104246;1288;61478;-84
2023/06/09 07:42:53;;;;;;;;;;;;;;;24.89;39.39;100723.13;103992;1288;62105;-85
2023/06/09 07:45:19;;;;;;;;;;;;;;;24.89;39.35;100720.98;105322;1288;59525;-85
2023/06/09 07:47:44;;;;;;;;;;;;;;;24.89;39.22;100722.75;105197;1291;61391;-84
2023/06/09 07:50:11;;;;;;;;;;;;;;;24.89;39.37;100720.56;105418;1288;61298;-85
2023/06/09 07:52:37;;;;;;;;;;;;;;;24.89;39.28;100721.85;105185;1288;60089;-85
2023/06/09 07:55:03;;;;;;;;;;;;;;;24.90;39.29;100723.41;105143;1289;61359;-84
2023/06/09 07:57:29;;;;;;;;;;;;;;;24.89;39.33;100723.30;105242;1288;61319;-85
2023/06/09 07:59:55;;;;;;;;;;;;;;;24.89;39.24;100726.31;105036;1288;61842;-85
2023/06/09 08:02:20;;;;;;;;;;;;;;;24.90;39.20;100724.66;105354;1288;72720;-85
2023/06/09 08:04:46;;;;;;;;;;;;;;;24.89;39.03;100723.31;105368;1288;62354;-86
2023/06/09 08:07:12;;;;;;;;;;;;;;;24.87;39.26;100718.05;104218;1289;61382;-85
2023/06/09 08:09:38;;;;;;;;;;;;;;;24.87;39.20;100720.72;103916;1289;61292;-84
2023/06/09 08:12:06;;;;;;;;;;;;;;;24.88;39.07;100714.76;103956;1288;61400;-85
2023/06/09 08:14:31;;;;;;;;;;;;;;;24.88;39.11;100718.33;103494;1292;61395;-84
2023/06/09 08:16:58;;;;;;;;;;;;;;;24.88;39.09;100715.80;103194;1292;61533;-84
2023/06/09 08:19:24;;;;;;;;;;;;;;;24.88;39.10;100715.98;103538;1293;61398;-84
2023/06/09 08:21:50;;;;;;;;;;;;;;;24.88;39.02;100707.52;103402;1294;61403;-84
2023/06/09 08:24:16;;;;;;;;;;;;;;;24.87;39.09;100708.84;103504;1294;61566;-84
2023/06/09 08:26:43;;;;;;;;;;;;;;;24.87;39.09;100706.30;103454;1293;61452;-84
2023/06/09 08:29:10;;;;;;;;;;;;;;;24.88;39.12;100708.85;103414;1294;61636;-85
2023/06/09 08:31:37;;;;;;;;;;;;;;;24.87;39.12;100707.82;103324;1294;61322;-84
2023/06/09 08:34:03;;;;;;;;;;;;;;;24.87;38.99;100705.32;103692;1296;66730;-85
2023/06/09 08:36:28;;;;;;;;;;;;;;;24.87;39.02;100696.67;103838;1293;61352;-85
2023/06/09 08:38:54;;;;;;;;;;;;;;;24.86;38.94;100695.63;103614;1293;62952;-84
2023/06/09 08:41:22;;;;;;;;;;;;;;;24.87;38.98;100698.67;103629;1293;61444;-84
2023/06/09 08:43:47;;;;;;;;;;;;;;;24.86;38.93;100690.27;103590;1294;61340;-84
2023/06/09 08:46:13;;;;;;;;;;;;;;;24.86;38.86;100687.56;103807;1289;61468;-85
2023/06/09 08:48:40;;;;;;;;;;;;;;;24.87;38.93;100684.77;104100;1288;61321;-84
2023/06/09 08:51:08;;;;;;;;;;;;;;;24.86;38.86;100678.16;103899;1289;62272;-84
2023/06/09 08:53:34;;;;;;;;;;;;;;;24.87;38.84;100685.67;104066;1288;61680;-84
2023/06/09 08:56:00;;;;;;;;;;;;;;;24.87;39.00;100681.53;103904;1291;61395;-84
2023/06/09 08:58:26;;;;;;;;;;;;;;;24.87;38.91;100676.84;103910;1288;61382;-84
2023/06/09 09:00:52;;;;;;;;;;;;;;;24.87;38.87;100670.73;103741;1293;61359;-84
2023/06/09 09:03:18;;;;;;;;;;;;;;;24.87;38.72;100666.20;103388;1293;61435;-84
2023/06/09 09:05:45;;;;;;;;;;;;;;;24.87;38.79;100666.78;103546;1289;61407;-84
2023/06/09 09:08:11;;;;;;;;;;;;;;;24.86;38.96;100658.80;103603;1288;62234;-84
2023/06/09 09:10:38;;;;;;;;;;;;;;;24.86;38.76;100658.59;103713;1290;61289;-84
2023/06/09 09:13:06;;;;;;;;;;;;;;;24.86;38.82;100656.63;103979;1290;73355;-84
2023/06/09 09:15:31;;;;;;;;;;;;;;;24.86;38.77;100662.71;103536;1293;65731;-84
2023/06/09 09:17:59;;;;;;;;;;;;;;;24.86;38.81;100669.20;103552;1289;61383;-84
2023/06/09 09:20:32;;;;;;;;;;;;;;;24.86;38.83;100662.35;103652;1288;62347;-85
2023/06/09 09:22:58;;;;;;;;;;;;;;;24.86;38.70;100664.55;103845;1294;63899;-84
2023/06/09 09:25:27;;;;;;;;;;;;;;;24.86;38.78;100662.55;103608;1293;61340;-84
2023/06/09 09:28:00;;;;;;;;;;;;;;;24.86;38.54;100660.02;103934;1291;61350;-84
2023/06/09 09:30:42;;;;;;;;;;;;;;;24.86;38.50;100654.95;104024;1288;61182;-84
2023/06/09 09:33:09;;;;;;;;;;;;;;;24.86;38.56;100650.65;103264;1291;64077;-84
2023/06/09 09:35:36;;;;;;;;;;;;;;;24.86;38.61;100652.80;103398;1294;66813;-84
2023/06/09 09:38:01;;;;;;;;;;;;;;;24.87;38.45;100657.23;103246;1292;62426;-84
2023/06/09 09:40:27;;;;;;;;;;;;;;;24.87;38.42;100648.05;103324;1291;61416;-84
2023/06/09 09:42:53;;;;;;;;;;;;;;;24.87;38.49;100651.86;103268;1290;61902;-84
2023/06/09 09:45:26;;;;;;;;;;;;;;;24.87;38.36;100645.72;103183;1288;66599;-84
2023/06/09 09:47:52;;;;;;;;;;;;;;;24.87;38.21;100643.38;103625;1291;61321;-84
2023/06/09 09:50:22;;;;;;;;;;;;;;;24.87;38.41;100637.29;103465;1291;61388;-83
2023/06/09 09:52:50;;;;;;;;;;;;;;;24.86;38.25;100632.48;103790;1288;73460;-85
2023/06/09 09:55:16;;;;;;;;;;;;;;;24.87;38.23;100634.07;103783;1288;66829;-84
2023/06/09 09:57:41;;;;;;;;;;;;;;;24.87;38.22;100632.25;103650;1288;62047;-84
2023/06/09 10:00:11;;;;;;;;;;;;;;;24.86;38.22;100631.57;103620;1288;61478;-84
2023/06/09 10:02:37;;;;;;;;;;;;;;;24.87;38.01;100632.62;103246;1291;63693;-84
2023/06/09 10:05:05;;;;;;;;;;;;;;;24.87;38.11;100628.84;103728;1289;62422;-84
2023/06/09 10:07:30;;;;;;;;;;;;;;;24.87;38.00;100627.22;103485;1287;61349;-84
2023/06/09 10:09:56;;;;;;;;;;;;;;;24.87;38.04;100620.73;103475;1293;61314;-84
2023/06/09 10:12:21;;;;;;;;;;;;;;;24.87;37.92;100613.52;103459;1288;61870;-84
2023/06/09 10:14:48;;;;;;;;;;;;;;;24.86;38.09;100619.38;103716;1288;61748;-84
2023/06/09 10:17:15;;;;;;;;;;;;;;;24.87;37.83;100627.02;103479;1293;61826;-84
2023/06/09 10:19:40;;;;;;;;;;;;;;;24.86;37.86;100623.81;103371;1289;61387;-84
2023/06/09 10:22:06;;;;;;;;;;;;;;;24.87;37.85;100619.05;103489;1289;61326;-84
2023/06/09 10:24:33;;;;;;;;;;;;;;;24.87;37.80;100612.27;103249;1289;63744;-84
2023/06/09 10:26:58;;;;;;;;;;;;;;;24.86;37.85;100606.91;103407;1293;61401;-84
2023/06/09 10:29:27;;;;;;;;;;;;;;;24.87;37.89;100608.50;103305;1289;61302;-84
2023/06/09 10:31:52;;;;;;;;;;;;;;;24.86;37.79;100603.12;103370;1289;62417;-84
2023/06/09 10:34:18;;;;;;;;;;;;;;;24.86;37.87;100602.61;103238;1289;61387;-84
2023/06/09 10:36:45;;;;;;;;;;;;;;;24.85;37.75;100599.29;103475;1288;61351;-84
2023/06/09 10:39:15;;;;;;;;;;;;;;;24.85;37.76;100596.91;103278;1294;61376;-84
2023/06/09 10:41:40;;;;;;;;;;;;;;;24.85;37.77;100594.02;103219;1289;61236;-84
2023/06/09 10:44:16;;;;;;;;;;;;;;;24.85;37.95;100596.95;103467;1291;62620;-84
2023/06/09 10:46:42;;;;;;;;;;;;;;;24.85;37.77;100596.54;103297;1289;75382;-84
2023/06/09 10:49:36;;;;;;;;;;;;;;;24.85;37.76;100600.53;103486;1289;61397;-84
2023/06/09 10:52:02;;;;;;;;;;;;;;;24.85;37.73;100595.86;103622;1289;62375;-84
2023/06/09 10:54:29;;;;;;;;;;;;;;;24.85;37.90;100591.14;103465;1294;64575;-84
2023/06/09 10:57:00;;;;;;;;;;;;;;;24.86;37.99;100590.17;103327;1289;66916;-84
2023/06/09 10:59:35;;;;;;;;;;;;;;;24.86;37.98;100589.08;103507;1289;61459;-84
2023/06/09 11:02:03;;;;;;;;;;;;;;;24.86;37.91;100588.00;103424;1288;61396;-84
2023/06/09 11:04:41;;;;;;;;;;;;;;;24.87;37.98;100588.83;103669;1288;72407;-84
2023/06/09 11:07:13;;;;;;;;;;;;;;;24.88;37.89;100585.86;103584;1288;66877;-84
2023/06/09 11:09:56;;;;;;;;;;;;;;;24.88;37.92;100585.14;103573;1288;61373;-84
2023/06/09 11:12:22;;;;;;;;;;;;;;;24.88;37.89;100576.45;103459;1295;61429;-84
2023/06/09 11:14:51;;;;;;;;;;;;;;;24.89;38.00;100568.52;103574;1292;61284;-84
2023/06/09 11:17:25;;;;;;;;;;;;;;;24.89;37.89;100564.52;103692;1288;65614;-84
2023/06/09 11:19:53;;;;;;;;;;;;;;;24.89;37.96;100564.50;103638;1288;61379;-84
2023/06/09 11:22:19;;;;;;;;;;;;;;;24.89;38.01;100561.60;103744;1288;61294;-84
2023/06/09 11:24:48;;;;;;;;;;;;;;;24.90;37.99;100559.79;103508;1288;61824;-84
2023/06/09 11:27:20;;;;;;;;;;;;;;;24.90;38.02;100554.15;103608;1288;66849;-84
2023/06/09 11:30:04;;;;;;;;;;;;;;;24.90;38.01;100549.64;103552;1288;61294;-84
2023/06/09 11:32:56;;;;;;;;;;;;;;;24.91;38.03;100550.15;103840;1288;62360;-84
2023/06/09 11:35:25;;;;;;;;;;;;;;;24.91;38.10;100544.48;103687;1288;64950;-84
2023/06/09 11:37:53;;;;;;;;;;;;;;;24.92;38.01;100547.87;103664;1288;66951;-84
2023/06/09 11:40:20;;;;;;;;;;;;;;;24.92;37.97;100541.02;103777;1288;63635;-84
2023/06/09 11:42:46;;;;;;;;;;;;;;;24.93;38.07;100541.66;103592;1288;61142;-83
2023/06/09 11:45:11;;;;;;;;;;;;;;;24.94;38.10;100540.35;103770;1289;61307;-84
2023/06/09 11:47:37;;;;;;;;;;;;;;;24.94;38.04;100539.60;103403;1288;61349;-84
2023/06/09 11:50:09;;;;;;;;;;;;;;;24.94;38.15;100535.83;103895;1288;61801;-84
2023/06/09 11:52:34;;;;;;;;;;;;;;;24.94;38.27;100537.59;103800;1289;61311;-84
2023/06/09 11:55:00;;;;;;;;;;;;;;;24.94;38.17;100533.96;103627;1291;61417;-84
2023/06/09 11:57:26;;;;;;;;;;;;;;;24.95;38.10;100532.64;103957;1288;61336;-84
2023/06/09 11:59:52;;;;;;;;;;;;;;;24.95;38.22;100523.13;103554;1288;61396;-84
2023/06/09 12:02:18;;;;;;;;;;;;;;;24.95;38.13;100517.01;103480;1289;61655;-84
2023/06/09 12:04:45;;;;;;;;;;;;;;;24.95;38.26;100520.23;103558;1289;61429;-84
2023/06/09 12:07:12;;;;;;;;;;;;;;;24.96;38.22;100518.73;103788;1288;61420;-84
2023/06/09 12:09:38;;;;;;;;;;;;;;;24.96;38.19;100518.92;103712;1288;61468;-84
2023/06/09 12:12:05;;;;;;;;;;;;;;;24.96;38.19;100519.25;103570;1288;61485;-84
2023/06/09 12:14:32;;;;;;;;;;;;;;;24.96;38.10;100518.52;103340;1291;61372;-84
2023/06/09 12:16:59;;;;;;;;;;;;;;;24.97;38.29;100514.34;103327;1290;61476;-84
2023/06/09 12:19:25;;;;;;;;;;;;;;;24.96;38.17;100512.38;103409;1291;61225;-84
2023/06/09 12:21:51;;;;;;;;;;;;;;;24.97;38.11;100514.48;103598;1288;61480;-84
2023/06/09 12:24:16;;;;;;;;;;;;;;;24.98;38.16;100510.85;103662;1289;61238;-85